West Jordan East
, West Jordan
Last Weather Update:07/30/2011 11:00:00 PM
Date
ETo
ETc
Rain
Irrigation
Req
Temp
Max
Temp
Min
Temp
Avg
Avg RH
Avg Wind
Avg Solar
inches
inches
incehs
inches
F
F
F
%
%
watts/m2
06/01/2011 0.26" 0.21" 0.00" 0.21" 78.5° 56.9° 67.9° 26.4% 7.6 MPH 264.0w/m2
06/02/2011 0.19" 0.15" 0.00" 0.15" 67.6° 45.8° 54.3° 47.1% 7.3 MPH 320.0w/m2
06/03/2011 0.17" 0.13" 0.00" 0.13" 63.8° 38.4° 51.9° 61.2% 2.8 MPH 305.0w/m2
06/04/2011 0.20" 0.16" 0.00" 0.16" 77.1° 39.3° 59.5° 54.1% 2.8 MPH 309.0w/m2
06/05/2011 0.28" 0.23" 0.00" 0.23" 87.1° 48.0° 69.2° 40.5% 4.1 MPH 372.0w/m2
06/06/2011 0.23" 0.19" 0.00" 0.19" 81.2° 51.6° 67.4° 33.4% 6.2 MPH 233.0w/m2
06/07/2011 0.20" 0.16" 0.00" 0.16" 70.9° 44.6° 60.5° 56.9% 3.6 MPH 325.0w/m2
06/08/2011 0.19" 0.15" 0.00" 0.15" 72.1° 47.0° 59.4° 67.7% 4.9 MPH 300.0w/m2
06/09/2011 0.16" 0.13" 0.00" 0.13" 65.5° 44.4° 56.8° 65.5% 4.3 MPH 281.0w/m2
06/10/2011 0.24" 0.19" 0.00" 0.19" 78.8° 40.3° 60.1° 54.8% 4.0 MPH 355.0w/m2
06/11/2011 0.18" 0.14" 0.00" 0.14" 74.7° 53.4° 64.7° 57.9% 3.0 MPH 261.0w/m2
06/12/2011 0.17" 0.13" 0.00" 0.13" 74.9° 52.4° 63.6° 66.5% 3.0 MPH 253.0w/m2
06/13/2011 0.18" 0.14" 0.05" 0.10" 76.9° 52.8° 64.1° 62.5% 3.6 MPH 273.0w/m2
06/14/2011 0.23" 0.18" 0.01" 0.17" 76.4° 52.5° 65.0° 64.6% 2.4 MPH 362.0w/m2
06/15/2011 0.25" 0.20" 0.00" 0.20" 85.4° 52.3° 70.2° 50.3% 4.5 MPH 333.0w/m2
06/16/2011 0.21" 0.17" 0.00" 0.17" 69.5° 53.8° 60.9° 51.5% 6.6 MPH 295.0w/m2
06/17/2011 0.23" 0.18" 0.00" 0.18" 70.1° 41.8° 58.1° 47.2% 3.0 MPH 368.0w/m2
06/18/2011 0.22" 0.18" 0.00" 0.18" 80.8° 45.2° 64.8° 46.7% 4.0 MPH 297.0w/m2
06/19/2011 0.05" 0.04" 1.04" -0.79" 65.5° 47.7° 53.6° 93.1% 3.3 MPH 78.0w/m2
06/20/2011 0.21" 0.17" 0.00" 0.17" 70.1° 47.9° 59.9° 70.3% 2.6 MPH 350.0w/m2
06/21/2011 0.24" 0.19" 0.00" 0.19" 79.3° 47.1° 64.8° 59.5% 2.9 MPH 363.0w/m2
06/22/2011 0.25" 0.20" 0.00" 0.20" 90.0° 50.8° 71.4° 51.2% 2.5 MPH 364.0w/m2
06/23/2011 0.27" 0.22" 0.00" 0.22" 91.2° 65.1° 79.0° 37.1% 5.3 MPH 296.0w/m2
06/24/2011 0.25" 0.20" 0.00" 0.20" 83.5° 56.9° 73.1° 51.2% 3.1 MPH 354.0w/m2
06/25/2011 0.25" 0.20" 0.00" 0.20" 83.7° 55.9° 71.6° 57.7% 3.4 MPH 355.0w/m2
06/26/2011 0.25" 0.20" 0.00" 0.20" 79.3° 55.6° 69.7° 50.9% 4.2 MPH 358.0w/m2
06/27/2011 0.26" 0.21" 0.00" 0.21" 90.0° 52.4° 72.5° 46.0% 2.7 MPH 358.0w/m2
06/28/2011 0.35" 0.28" 0.00" 0.28" 95.2° 62.7° 81.4° 24.7% 7.9 MPH 326.0w/m2
06/29/2011 0.25" 0.20" 0.00" 0.20" 91.7° 72.5° 80.5° 31.5% 7.0 MPH 206.0w/m2
06/30/2011 0.23" 0.18" 0.00" 0.18" 80.1° 62.3° 71.9° 51.5% 3.8 MPH 313.0w/m2
Totals: 6.66" 5.33" 1.10" 4.45" 95.2° 38.4° 65.6° 52.6% 4.2 MPH 307.6w/m2